createdAt,value
2019-03-24T00:02:28.585Z,33.50
2019-03-24T00:05:30.343Z,42.00
2019-03-24T00:08:32.621Z,38.35
2019-03-24T00:11:33.613Z,34.00
2019-03-24T00:14:36.649Z,24.47
2019-03-24T00:17:37.899Z,41.95
2019-03-24T00:20:38.892Z,28.32
2019-03-24T00:23:39.886Z,25.40
2019-03-24T00:26:41.129Z,46.95
2019-03-24T00:29:38.414Z,25.95
2019-03-24T00:32:39.791Z,47.48
2019-03-24T00:35:41.034Z,28.70
2019-03-24T00:38:42.281Z,37.45
2019-03-24T00:41:43.278Z,27.95
2019-03-24T00:44:40.678Z,26.95
2019-03-24T00:47:41.938Z,26.70
2019-03-24T00:50:42.925Z,24.40
2019-03-24T00:53:51.340Z,27.73
2019-03-24T00:56:55.915Z,29.23
2019-03-24T00:59:56.915Z,33.45
2019-03-24T01:02:58.924Z,42.58
2019-03-24T01:06:01.792Z,31.10
2019-03-24T01:09:00.905Z,31.23
2019-03-24T01:12:02.159Z,38.70
2019-03-24T01:15:03.409Z,36.90
2019-03-24T01:18:05.674Z,48.42
2019-03-24T01:20:58.992Z,38.67
2019-03-24T01:24:00.497Z,58.83
2019-03-24T01:27:02.763Z,45.15
2019-03-24T01:30:03.753Z,38.23
2019-03-24T01:33:01.336Z,51.23
2019-03-24T01:36:02.687Z,52.35
2019-03-24T01:39:03.658Z,38.73
2019-03-24T01:42:05.674Z,38.33
2019-03-24T01:45:06.923Z,52.08
2019-03-24T01:48:08.170Z,50.70
2019-03-24T01:51:09.167Z,51.25
2019-03-24T01:54:10.153Z,54.10
2019-03-24T01:57:11.146Z,47.90
2019-03-24T02:00:08.423Z,45.20
2019-03-24T02:03:09.291Z,46.92
2019-03-24T02:06:10.284Z,62.50
2019-03-24T02:09:12.040Z,47.85
2019-03-24T02:12:13.292Z,52.20
2019-03-24T02:15:14.539Z,44.35
2019-03-24T02:18:15.530Z,62.60
2019-03-24T02:21:08.851Z,67.25
2019-03-24T02:24:10.094Z,54.25
2019-03-24T02:27:11.593Z,46.63
2019-03-24T02:30:12.593Z,53.58
2019-03-24T02:33:14.354Z,61.25
2019-03-24T02:36:22.762Z,58.70
2019-03-24T02:39:23.754Z,72.25
2019-03-24T02:42:25.258Z,59.90
2019-03-24T02:45:18.827Z,58.65
2019-03-24T02:48:21.866Z,57.45
2019-03-24T02:51:23.114Z,66.28
2019-03-24T02:54:31.786Z,51.45
2019-03-24T02:57:32.779Z,57.95
2019-03-24T03:00:26.097Z,48.78
2019-03-24T03:03:27.338Z,58.38
2019-03-24T03:06:29.353Z,62.30
2019-03-24T03:09:30.352Z,53.87
2019-03-24T03:12:23.661Z,61.23
2019-03-24T03:15:24.648Z,47.98
2019-03-24T03:18:25.641Z,55.92
2019-03-24T03:21:20.240Z,56.18
2019-03-24T03:24:22.257Z,62.95
2019-03-24T03:27:24.528Z,49.93
2019-03-24T03:30:18.099Z,60.92
2019-03-24T03:33:19.340Z,54.25
2019-03-24T03:36:20.329Z,66.60
2019-03-24T03:39:22.372Z,53.55
2019-03-24T03:42:23.596Z,52.40
2019-03-24T03:45:27.660Z,64.17
2019-03-24T03:48:28.906Z,56.50
2019-03-24T03:51:30.152Z,59.50
2019-03-24T03:54:31.412Z,57.65
2019-03-24T03:57:32.395Z,78.00
2019-03-24T04:00:33.646Z,55.83
2019-03-24T04:03:35.147Z,51.65
2019-03-24T04:06:36.651Z,54.10
2019-03-24T04:09:38.158Z,54.00
2019-03-24T04:12:39.447Z,59.98
2019-03-24T04:15:40.655Z,57.45
2019-03-24T04:18:42.163Z,50.70
2019-03-24T04:21:44.431Z,53.28
2019-03-24T04:24:42.958Z,48.10
2019-03-24T04:27:44.110Z,53.48
2019-03-24T04:30:37.679Z,59.20
2019-03-24T04:33:38.928Z,51.35
2019-03-24T04:36:39.920Z,57.55
2019-03-24T04:39:41.164Z,50.10
2019-03-24T04:42:42.155Z,47.48
2019-03-24T04:45:43.144Z,53.08
2019-03-24T04:48:44.394Z,50.05
2019-03-24T04:51:41.809Z,44.05
2019-03-24T04:54:43.308Z,53.23
2019-03-24T04:57:44.564Z,45.33
2019-03-24T05:00:45.802Z,35.68
2019-03-24T05:03:54.218Z,38.33
2019-03-24T05:06:55.467Z,43.23
2019-03-24T05:09:56.462Z,43.50
2019-03-24T05:12:49.782Z,49.98
2019-03-24T05:15:51.280Z,47.62
2019-03-24T05:18:52.522Z,41.42
2019-03-24T05:21:53.513Z,42.73
2019-03-24T05:24:55.784Z,55.67
2019-03-24T05:27:57.033Z,45.30
2019-03-24T05:30:59.048Z,49.67
2019-03-24T05:34:00.040Z,39.67
2019-03-24T05:37:01.547Z,41.92
2019-03-24T05:40:03.050Z,44.75
2019-03-24T05:43:04.811Z,53.68
2019-03-24T05:46:05.801Z,45.67
2019-03-24T05:49:06.795Z,40.67
2019-03-24T05:52:08.303Z,45.80
2019-03-24T05:55:09.546Z,40.88
2019-03-24T05:58:11.055Z,46.18
2019-03-24T06:01:12.298Z,41.55
2019-03-24T06:04:14.579Z,41.42
2019-03-24T06:07:16.074Z,31.75
2019-03-24T06:10:17.071Z,34.65
2019-03-24T06:13:18.064Z,38.70
2019-03-24T06:16:14.162Z,36.63
2019-03-24T06:19:16.455Z,43.80
2019-03-24T06:22:18.482Z,31.50
2019-03-24T06:25:19.746Z,40.28
2019-03-24T06:28:23.788Z,35.90
2019-03-24T06:31:26.056Z,38.70
2019-03-24T06:34:27.309Z,37.93
2019-03-24T06:37:28.552Z,51.13
2019-03-24T06:40:30.065Z,44.53
2019-03-24T06:43:32.328Z,31.07
2019-03-24T06:46:36.393Z,43.58
2019-03-24T06:49:37.391Z,37.15
2019-03-24T06:52:38.643Z,40.63
2019-03-24T06:55:40.395Z,36.03
2019-03-24T06:58:41.391Z,37.17
2019-03-24T07:01:42.887Z,33.28
2019-03-24T07:04:43.880Z,35.08
2019-03-24T07:07:44.872Z,47.25
2019-03-24T07:10:38.185Z,39.90
2019-03-24T07:13:39.180Z,35.15
2019-03-24T07:16:40.681Z,34.18
2019-03-24T07:19:41.930Z,39.42
2019-03-24T07:22:43.183Z,42.67
2019-03-24T07:25:44.682Z,41.05
2019-03-24T07:28:47.210Z,34.13
2019-03-24T07:31:49.483Z,40.50
2019-03-24T07:34:50.246Z,37.53
2019-03-24T07:37:51.471Z,42.48
2019-03-24T07:40:52.723Z,42.30
2019-03-24T07:43:54.219Z,42.88
2019-03-24T07:46:55.465Z,50.33
2019-03-24T07:49:50.835Z,51.40
2019-03-24T07:52:52.329Z,45.03
2019-03-24T07:55:53.324Z,44.95
2019-03-24T07:58:54.330Z,49.65
2019-03-24T08:01:55.567Z,49.77
2019-03-24T08:04:57.065Z,47.93
2019-03-24T08:07:58.313Z,48.38
2019-03-24T08:11:00.849Z,53.02
2019-03-24T08:14:08.490Z,60.70
2019-03-24T08:17:09.738Z,42.43
2019-03-24T08:20:12.378Z,42.62
2019-03-24T08:23:12.234Z,35.30
2019-03-24T08:26:13.227Z,43.38
2019-03-24T08:29:21.641Z,39.13
2019-03-24T08:32:23.145Z,43.73
2019-03-24T08:35:20.554Z,42.50
2019-03-24T08:38:22.570Z,37.38
2019-03-24T08:41:23.561Z,42.83
2019-03-24T08:44:25.072Z,37.93
2019-03-24T08:47:26.058Z,45.03
2019-03-24T08:50:19.892Z,44.53
2019-03-24T08:53:21.646Z,41.02
2019-03-24T08:56:22.890Z,42.93
2019-03-24T08:59:23.882Z,35.05
2019-03-24T09:02:25.389Z,44.38
2019-03-24T09:05:26.894Z,50.28
2019-03-24T09:08:20.206Z,42.67
2019-03-24T09:11:30.865Z,49.48
2019-03-24T09:14:29.616Z,52.03
2019-03-24T09:17:30.665Z,41.70
2019-03-24T09:20:41.284Z,39.20
2019-03-24T09:23:34.890Z,34.33
2019-03-24T09:26:36.404Z,47.60
2019-03-24T09:29:37.390Z,45.05
2019-03-24T09:32:38.380Z,50.17
2019-03-24T09:35:39.630Z,47.80
2019-03-24T09:38:40.877Z,43.85
2019-03-24T09:41:42.121Z,43.28
2019-03-24T09:44:44.140Z,42.10
2019-03-24T09:47:46.155Z,39.42
2019-03-24T09:50:47.401Z,49.75
2019-03-24T09:53:48.652Z,42.05
2019-03-24T09:56:49.898Z,39.50
2019-03-24T09:59:51.147Z,42.08
2019-03-24T10:02:52.650Z,46.83
2019-03-24T10:06:49.192Z,40.20
2019-03-24T10:09:42.766Z,49.30
2019-03-24T10:12:44.778Z,52.25
2019-03-24T10:15:47.821Z,38.67
2019-03-24T10:18:50.347Z,46.23
2019-03-24T10:21:51.600Z,39.00
2019-03-24T10:24:52.845Z,45.08
2019-03-24T10:27:54.602Z,41.83
2019-03-24T10:30:56.361Z,40.92
2019-03-24T10:33:57.617Z,42.67
2019-03-24T10:36:59.637Z,40.75
2019-03-24T10:40:01.901Z,42.40
2019-03-24T10:43:03.146Z,42.78
2019-03-24T10:46:04.411Z,47.90
2019-03-24T10:49:05.899Z,41.70
2019-03-24T10:52:07.659Z,45.03
2019-03-24T10:55:08.904Z,40.88
2019-03-24T10:58:10.152Z,43.20
2019-03-24T11:01:12.942Z,47.67
2019-03-24T11:04:16.035Z,36.00
2019-03-24T11:07:16.720Z,40.85
2019-03-24T11:10:25.899Z,40.70
2019-03-24T11:13:27.405Z,38.40
2019-03-24T11:16:28.915Z,39.30
2019-03-24T11:19:35.001Z,40.30
2019-03-24T11:22:25.773Z,35.25
2019-03-24T11:25:26.770Z,41.15
2019-03-24T11:28:28.021Z,38.95
2019-03-24T11:31:29.265Z,40.92
2019-03-24T11:34:31.279Z,41.23
2019-03-24T11:37:32.532Z,41.25
2019-03-24T11:40:33.773Z,43.25
2019-03-24T11:43:35.022Z,32.73
2019-03-24T11:46:38.062Z,40.35
2019-03-24T11:49:30.602Z,36.20
2019-03-24T11:52:32.107Z,44.15
2019-03-24T11:55:33.357Z,38.65
2019-03-24T11:58:34.889Z,41.25
2019-03-24T12:01:38.410Z,43.38
2019-03-24T12:04:37.613Z,38.40
2019-03-24T12:07:38.602Z,34.85
2019-03-24T12:10:39.596Z,40.60
2019-03-24T12:13:40.846Z,41.55
2019-03-24T12:16:42.344Z,43.08
2019-03-24T12:19:43.337Z,40.95
2019-03-24T12:22:44.842Z,42.38
2019-03-24T12:25:46.095Z,31.77
2019-03-24T12:28:47.339Z,41.18
2019-03-24T12:31:48.592Z,39.95
2019-03-24T12:34:50.089Z,31.07
2019-03-24T12:37:51.336Z,34.35
2019-03-24T12:40:52.843Z,33.70
2019-03-24T12:43:54.345Z,39.45
2019-03-24T12:46:55.336Z,36.13
2019-03-24T12:50:08.419Z,42.78
2019-03-24T12:52:51.432Z,33.35
2019-03-24T12:55:53.712Z,40.67
2019-03-24T12:58:54.957Z,36.35
2019-03-24T13:01:56.209Z,35.50
2019-03-24T13:04:57.451Z,30.43
2019-03-24T13:07:59.470Z,27.15
2019-03-24T13:11:00.975Z,29.18
2019-03-24T13:14:02.218Z,27.82
2019-03-24T13:17:03.484Z,24.10
2019-03-24T13:20:05.227Z,22.10
2019-03-24T13:23:02.628Z,22.75
2019-03-24T13:25:56.227Z,20.35
2019-03-24T13:28:57.717Z,24.82
2019-03-24T13:31:59.467Z,18.17
2019-03-24T13:35:00.988Z,19.70
2019-03-24T13:38:09.390Z,15.48
2019-03-24T13:41:10.637Z,11.80
2019-03-24T13:44:11.628Z,13.80
2019-03-24T13:47:13.387Z,14.95
2019-03-24T13:50:15.932Z,12.53
2019-03-24T13:53:18.185Z,11.25
2019-03-24T13:56:21.225Z,11.43
2019-03-24T13:59:23.791Z,15.25
2019-03-24T14:02:24.743Z,9.83
2019-03-24T14:05:31.880Z,10.10
2019-03-24T14:08:32.873Z,10.15
2019-03-24T14:11:35.145Z,9.65
2019-03-24T14:14:36.401Z,12.13
2019-03-24T14:17:37.642Z,12.43
2019-03-24T14:20:42.459Z,12.78
2019-03-24T14:23:28.564Z,12.63
2019-03-24T14:26:29.608Z,9.28
2019-03-24T14:29:32.138Z,11.48
2019-03-24T14:32:33.897Z,12.47
2019-03-24T14:35:35.145Z,13.68
2019-03-24T14:38:36.138Z,12.18
2019-03-24T14:41:37.389Z,10.05
2019-03-24T14:44:39.146Z,13.43
2019-03-24T14:47:40.141Z,11.70
2019-03-24T14:50:41.128Z,13.60
2019-03-24T14:53:44.174Z,13.43
2019-03-24T14:56:45.416Z,13.75
2019-03-24T14:59:47.945Z,11.70
2019-03-24T15:02:49.195Z,10.80
2019-03-24T15:05:50.442Z,9.58
2019-03-24T15:08:51.435Z,13.13
2019-03-24T15:11:52.683Z,9.03
2019-03-24T15:14:53.673Z,11.88
2019-03-24T15:17:54.921Z,10.48
2019-03-24T15:21:05.671Z,12.10
2019-03-24T15:23:58.696Z,8.85
2019-03-24T15:26:59.948Z,9.95
2019-03-24T15:29:54.068Z,16.70
2019-03-24T15:32:49.929Z,8.53
2019-03-24T15:35:52.168Z,7.92
2019-03-24T15:38:53.421Z,10.00
2019-03-24T15:41:54.671Z,11.05
2019-03-24T15:44:56.935Z,9.48
2019-03-24T15:47:58.448Z,11.53
2019-03-24T15:50:59.950Z,9.85
2019-03-24T15:54:01.465Z,20.00
2019-03-24T15:57:02.698Z,13.53
2019-03-24T16:00:03.945Z,8.90
2019-03-24T16:03:05.203Z,12.15
2019-03-24T16:06:06.700Z,14.15
2019-03-24T16:09:08.199Z,8.33
2019-03-24T16:12:09.449Z,12.43
2019-03-24T16:15:10.955Z,12.30
2019-03-24T16:18:11.944Z,8.48
2019-03-24T16:21:13.193Z,7.47
2019-03-24T16:24:15.977Z,11.12
2019-03-24T16:27:16.969Z,12.23
2019-03-24T16:30:18.220Z,12.45
2019-03-24T16:33:19.463Z,9.18
2019-03-24T16:36:21.991Z,7.65
2019-03-24T16:39:23.242Z,5.67
2019-03-24T16:42:24.999Z,9.98
2019-03-24T16:45:22.408Z,10.38
2019-03-24T16:48:23.405Z,13.68
2019-03-24T16:51:20.739Z,8.78
2019-03-24T16:54:21.801Z,12.05
2019-03-24T16:57:22.791Z,8.25
2019-03-24T17:00:24.042Z,7.12
2019-03-24T17:03:25.038Z,9.43
2019-03-24T17:06:29.355Z,9.03
2019-03-24T17:09:30.348Z,8.30
2019-03-24T17:12:31.847Z,12.93
2019-03-24T17:15:33.863Z,10.50
2019-03-24T17:18:35.112Z,8.75
2019-03-24T17:21:37.126Z,9.75
2019-03-24T17:24:38.378Z,6.83
2019-03-24T17:27:39.369Z,6.15
2019-03-24T17:30:41.129Z,7.33
2019-03-24T17:33:42.377Z,11.15
2019-03-24T17:36:43.623Z,6.85
2019-03-24T17:39:38.985Z,7.50
2019-03-24T17:42:48.421Z,7.60
2019-03-24T17:45:49.671Z,7.33
2019-03-24T17:48:51.436Z,13.22
2019-03-24T17:52:00.368Z,8.53
2019-03-24T17:54:53.418Z,12.85
2019-03-24T17:57:54.662Z,5.47
2019-03-24T18:01:10.508Z,11.33
2019-03-24T18:04:11.496Z,5.50
2019-03-24T18:07:13.510Z,5.65
2019-03-24T18:10:10.919Z,10.78
2019-03-24T18:13:23.176Z,7.83
2019-03-24T18:16:24.169Z,8.38
2019-03-24T18:19:25.435Z,15.23
2019-03-24T18:22:18.987Z,5.80
2019-03-24T18:25:19.977Z,4.72
2019-03-24T18:28:20.973Z,4.92
2019-03-24T18:31:21.965Z,5.37
2019-03-24T18:34:23.208Z,9.30
2019-03-24T18:37:24.209Z,8.48
2019-03-24T18:40:25.197Z,11.80
2019-03-24T18:43:26.442Z,8.25
2019-03-24T18:46:27.435Z,8.00
2019-03-24T18:49:28.683Z,8.85
2019-03-24T18:52:29.674Z,10.05
2019-03-24T18:55:30.925Z,5.20
2019-03-24T18:58:32.173Z,9.48
2019-03-24T19:01:33.672Z,7.70
2019-03-24T19:04:34.922Z,6.22
2019-03-24T19:07:36.177Z,5.83
2019-03-24T19:10:38.187Z,6.95
2019-03-24T19:13:39.179Z,9.53
2019-03-24T19:16:41.195Z,11.83
2019-03-24T19:19:42.697Z,7.53
2019-03-24T19:22:43.943Z,6.00
2019-03-24T19:25:44.936Z,9.20
2019-03-24T19:28:46.187Z,18.48
2019-03-24T19:31:47.182Z,10.10
2019-03-24T19:34:48.172Z,5.62
2019-03-24T19:37:49.164Z,3.65
2019-03-24T19:40:49.385Z,5.22
2019-03-24T19:43:50.896Z,5.97
2019-03-24T19:46:52.136Z,6.53
2019-03-24T19:49:53.383Z,8.25
2019-03-24T19:52:54.639Z,8.03
2019-03-24T19:55:56.648Z,6.50
2019-03-24T19:58:57.897Z,5.03
2019-03-24T20:02:00.169Z,13.38
2019-03-24T20:05:01.415Z,6.15
2019-03-24T20:08:05.992Z,8.20
2019-03-24T20:11:07.240Z,7.62
2019-03-24T20:14:08.235Z,9.03
2019-03-24T20:17:12.814Z,8.63
2019-03-24T20:20:14.057Z,9.73
2019-03-24T20:23:15.305Z,17.05
2019-03-24T20:26:17.832Z,9.05
2019-03-24T20:29:19.340Z,3.12
2019-03-24T20:32:20.326Z,7.12
2019-03-24T20:35:22.344Z,10.05
2019-03-24T20:38:23.334Z,9.70
2019-03-24T20:41:25.096Z,6.70
2019-03-24T20:44:26.088Z,8.65
2019-03-24T20:47:27.336Z,8.65
2019-03-24T20:50:28.591Z,7.85
2019-03-24T20:53:29.581Z,11.93
2019-03-24T20:56:31.097Z,14.35
2019-03-24T20:59:32.072Z,11.25
2019-03-24T21:02:33.324Z,9.10
2019-03-24T21:05:28.689Z,9.80
2019-03-24T21:08:30.954Z,7.42
2019-03-24T21:11:32.200Z,7.55
2019-03-24T21:14:33.190Z,7.75
2019-03-24T21:17:34.444Z,9.75
2019-03-24T21:20:35.943Z,9.53
2019-03-24T21:23:36.936Z,10.90
2019-03-24T21:26:38.186Z,8.23
2019-03-24T21:29:39.184Z,9.20
2019-03-24T21:32:40.167Z,7.75
2019-03-24T21:35:41.929Z,9.63
2019-03-24T21:38:43.175Z,7.78
2019-03-24T21:41:44.424Z,15.55
2019-03-24T21:44:45.673Z,13.80
2019-03-24T21:47:46.663Z,9.28
2019-03-24T21:50:47.912Z,3.58
2019-03-24T21:53:49.929Z,8.13
2019-03-24T21:56:51.176Z,9.75
2019-03-24T21:59:52.167Z,4.95
2019-03-24T22:02:53.416Z,4.58
2019-03-24T22:05:54.663Z,7.22
2019-03-24T22:08:55.655Z,6.97
2019-03-24T22:11:56.652Z,5.95
2019-03-24T22:14:57.644Z,8.88
2019-03-24T22:17:58.888Z,6.10
2019-03-24T22:21:07.309Z,5.35
2019-03-24T22:24:08.298Z,4.20
2019-03-24T22:27:09.292Z,5.85
2019-03-24T22:30:10.280Z,8.30
2019-03-24T22:33:08.586Z,6.65
2019-03-24T22:36:09.705Z,9.10
2019-03-24T22:39:10.952Z,5.45
2019-03-24T22:42:12.204Z,5.58
2019-03-24T22:48:20.842Z,3.15
2019-03-24T22:51:21.831Z,4.20
2019-03-24T22:54:22.824Z,3.80
2019-03-24T22:57:24.583Z,5.90
2019-03-24T23:00:25.574Z,7.08
2019-03-24T23:03:19.145Z,6.85
2019-03-24T23:06:20.650Z,3.77
2019-03-24T23:09:21.644Z,3.95
2019-03-24T23:12:22.630Z,5.28
2019-03-24T23:15:23.627Z,4.05
2019-03-24T23:18:24.623Z,3.08
2019-03-24T23:21:32.263Z,3.65
2019-03-24T23:24:33.519Z,2.80
2019-03-24T23:27:34.758Z,5.62
2019-03-24T23:30:29.109Z,4.10
2019-03-24T23:33:31.110Z,3.47
2019-03-24T23:36:32.358Z,4.25
2019-03-24T23:39:33.607Z,7.50
2019-03-24T23:42:35.111Z,2.42
2019-03-24T23:45:37.899Z,2.60
2019-03-24T23:48:39.142Z,4.83
2019-03-24T23:51:40.154Z,5.12
2019-03-24T23:54:41.127Z,7.72
2019-03-24T23:57:42.632Z,3.98
